createdAt,value
2023-01-18T00:04:57.761Z,11.35
2023-01-18T00:10:01.882Z,13.43
2023-01-18T00:15:04.931Z,14.98
2023-01-18T00:20:11.633Z,5.40
2023-01-18T00:25:16.394Z,12.20
2023-01-18T00:30:21.623Z,13.75
2023-01-18T00:35:24.699Z,9.57
2023-01-18T00:40:30.204Z,16.00
2023-01-18T00:45:33.009Z,5.88
2023-01-18T00:50:35.790Z,9.45
2023-01-18T00:55:39.880Z,11.77
2023-01-18T01:00:42.794Z,6.45
2023-01-18T01:06:03.307Z,13.40
2023-01-18T01:11:09.590Z,6.85
2023-01-18T01:16:30.060Z,7.65
2023-01-18T01:21:50.560Z,10.32
2023-01-18T01:26:54.900Z,3.97
2023-01-18T01:31:57.648Z,8.70
2023-01-18T01:37:00.688Z,5.15
2023-01-18T01:42:04.961Z,15.93
2023-01-18T01:47:12.899Z,11.80
2023-01-18T01:52:20.776Z,10.15
2023-01-18T01:57:28.608Z,3.65
2023-01-18T02:02:33.571Z,7.57
2023-01-18T02:07:36.940Z,8.88
2023-01-18T02:12:43.461Z,10.38
2023-01-18T02:18:08.034Z,10.57
2023-01-18T02:23:34.993Z,5.30
2023-01-18T02:28:42.613Z,10.30
2023-01-18T02:33:49.878Z,2.15
2023-01-18T02:38:57.098Z,10.93
2023-01-18T02:44:19.000Z,10.77
2023-01-18T02:49:27.239Z,11.82
2023-01-18T02:54:32.237Z,7.28
2023-01-18T02:59:41.937Z,2.58
2023-01-18T03:04:54.402Z,6.68
2023-01-18T03:09:58.832Z,9.95
2023-01-18T03:15:13.001Z,6.05
2023-01-18T03:20:20.370Z,5.28
2023-01-18T03:25:29.370Z,193.48
2023-01-18T03:30:53.106Z,5.45
2023-01-18T03:35:58.095Z,58.15
2023-01-18T03:41:03.244Z,9.13
2023-01-18T03:46:08.252Z,18.73
2023-01-18T03:51:17.092Z,7.22
2023-01-18T03:56:25.272Z,2.40
2023-01-18T04:01:29.805Z,7.45
2023-01-18T04:06:33.725Z,7.10
2023-01-18T04:25:01.881Z,9.48
2023-01-18T04:30:06.254Z,8.85
2023-01-18T04:35:09.691Z,8.20
2023-01-18T04:40:14.479Z,9.57
2023-01-18T04:45:18.474Z,10.63
2023-01-18T04:50:21.534Z,13.68
2023-01-18T04:55:25.679Z,5.68
2023-01-18T05:00:28.850Z,10.35
2023-01-18T05:05:31.596Z,5.38
2023-01-18T05:10:36.127Z,9.48
2023-01-18T05:15:39.044Z,9.27
2023-01-18T05:20:41.885Z,8.40
2023-01-18T05:25:45.983Z,18.02
2023-01-18T05:30:50.115Z,12.98
2023-01-18T05:35:54.719Z,9.35
2023-01-18T05:40:59.048Z,11.65
2023-01-18T05:46:01.972Z,13.05
2023-01-18T05:51:09.411Z,10.85
2023-01-18T05:56:14.288Z,9.07
2023-01-18T06:01:17.170Z,25.65
2023-01-18T06:06:20.066Z,22.52
2023-01-18T06:11:24.313Z,14.52
2023-01-18T06:16:27.121Z,15.77
2023-01-18T06:21:29.895Z,12.13
2023-01-18T06:26:36.338Z,17.08
2023-01-18T06:31:39.188Z,23.60
2023-01-18T06:36:42.143Z,20.65
2023-01-18T06:41:46.343Z,37.60
2023-01-18T06:46:49.381Z,46.67
2023-01-18T06:51:52.061Z,30.25
2023-01-18T06:56:56.427Z,17.90
2023-01-18T07:01:59.297Z,17.38
2023-01-18T07:07:02.124Z,28.95
2023-01-18T07:12:07.607Z,20.80
2023-01-18T07:17:10.552Z,25.20
2023-01-18T07:22:14.383Z,32.50
2023-01-18T07:27:19.403Z,34.88
2023-01-18T07:32:22.161Z,29.10
2023-01-18T07:37:24.987Z,30.48
2023-01-18T07:42:29.122Z,49.95
2023-01-18T07:47:32.056Z,37.90
2023-01-18T07:52:35.145Z,35.35
2023-01-18T07:57:39.488Z,35.30
2023-01-18T08:02:42.481Z,29.17
2023-01-18T08:07:46.764Z,34.83
2023-01-18T08:12:51.426Z,36.35
2023-01-18T08:17:55.415Z,25.67
2023-01-18T08:23:00.658Z,31.58
2023-01-18T08:28:06.494Z,23.63
2023-01-18T08:33:09.751Z,30.23
2023-01-18T08:38:13.771Z,38.53
2023-01-18T08:43:18.385Z,36.92
2023-01-18T08:48:21.196Z,27.05
2023-01-18T08:53:24.118Z,25.33
2023-01-18T08:58:28.168Z,27.98
2023-01-18T09:03:30.851Z,31.45
2023-01-18T09:08:34.446Z,29.27
2023-01-18T09:13:58.581Z,26.83
2023-01-18T09:19:06.221Z,43.42
2023-01-18T09:24:09.378Z,33.05
2023-01-18T09:29:13.795Z,29.80
2023-01-18T09:34:19.957Z,36.80
2023-01-18T09:39:24.132Z,34.90
2023-01-18T09:44:30.936Z,30.75
2023-01-18T09:49:37.920Z,33.55
2023-01-18T09:59:55.501Z,32.97
2023-01-18T10:05:05.613Z,30.52
2023-01-18T10:10:15.950Z,34.47
2023-01-18T10:15:22.484Z,26.90
2023-01-18T10:20:36.764Z,32.97
2023-01-18T10:25:43.374Z,29.27
2023-01-18T10:31:01.617Z,35.17
2023-01-18T10:36:12.044Z,36.30
2023-01-18T10:41:20.677Z,36.97
2023-01-18T10:46:26.284Z,32.53
2023-01-18T10:51:32.637Z,40.85
2023-01-18T10:56:36.114Z,53.43
2023-01-18T11:01:55.092Z,38.95
2023-01-18T11:07:01.312Z,38.45
2023-01-18T11:12:34.717Z,43.37
2023-01-18T11:17:38.930Z,49.28
2023-01-18T11:22:55.026Z,36.42
2023-01-18T11:28:03.183Z,39.20
2023-01-18T11:33:07.372Z,33.95
2023-01-18T11:38:19.517Z,37.72
2023-01-18T11:43:27.945Z,33.38
2023-01-18T11:48:39.818Z,29.73
2023-01-18T11:53:50.824Z,38.83
2023-01-18T11:58:53.743Z,36.03
2023-01-18T12:04:03.507Z,27.38
2023-01-18T12:09:20.161Z,31.40
2023-01-18T12:14:47.515Z,27.63
2023-01-18T12:20:03.389Z,24.58
2023-01-18T12:25:22.927Z,24.02
2023-01-18T12:30:44.323Z,27.23
2023-01-18T12:36:04.999Z,33.45
2023-01-18T12:41:32.561Z,30.88
2023-01-18T12:46:44.739Z,27.63
2023-01-18T12:51:53.385Z,29.20
2023-01-18T12:56:58.949Z,29.17
2023-01-18T13:02:13.812Z,19.60
2023-01-18T13:07:23.664Z,24.40
2023-01-18T13:12:27.583Z,29.02
2023-01-18T13:17:40.102Z,25.70
2023-01-18T13:22:57.500Z,27.33
2023-01-18T13:28:01.849Z,24.02
2023-01-18T13:33:13.871Z,32.42
2023-01-18T13:38:27.520Z,19.67
2023-01-18T13:44:03.835Z,21.67
2023-01-18T13:49:37.818Z,23.50
2023-01-18T13:55:03.840Z,24.60
2023-01-18T14:00:12.770Z,19.05
2023-01-18T14:05:25.108Z,18.17
2023-01-18T14:10:33.226Z,17.10
2023-01-18T14:15:54.398Z,21.25
2023-01-18T14:21:11.697Z,20.23
2023-01-18T14:26:19.499Z,22.98
2023-01-18T14:36:54.998Z,19.30
2023-01-18T14:42:02.815Z,24.65
2023-01-18T14:47:23.911Z,17.30
2023-01-18T14:52:31.500Z,18.90
2023-01-18T14:57:35.648Z,21.70
2023-01-18T15:02:39.794Z,18.80
2023-01-18T15:07:44.493Z,33.28
2023-01-18T15:12:52.990Z,25.30
2023-01-18T15:17:58.478Z,34.20
2023-01-18T15:23:01.900Z,30.25
2023-01-18T15:28:22.774Z,29.30
2023-01-18T15:33:28.167Z,27.90
2023-01-18T15:38:31.339Z,25.05
2023-01-18T15:43:39.255Z,31.75
2023-01-18T15:48:50.032Z,28.60
2023-01-18T15:53:56.420Z,33.30
2023-01-18T15:59:03.194Z,28.15
2023-01-18T16:04:22.116Z,21.60
2023-01-18T16:09:25.498Z,25.35
2023-01-18T16:14:36.283Z,28.73
2023-01-18T16:19:43.410Z,41.25
2023-01-18T16:24:50.860Z,42.25
2023-01-18T16:29:57.313Z,38.90
2023-01-18T16:35:01.954Z,45.80
2023-01-18T16:40:08.743Z,64.28
2023-01-18T16:45:15.375Z,79.43
2023-01-18T16:50:19.895Z,54.80
2023-01-18T16:55:23.294Z,59.08
2023-01-18T17:00:32.272Z,53.60
2023-01-18T17:05:34.962Z,60.85
2023-01-18T17:10:39.964Z,72.93
2023-01-18T17:15:45.409Z,87.63
2023-01-18T17:20:48.287Z,70.90
2023-01-18T17:25:51.028Z,49.00
2023-01-18T17:30:55.996Z,42.72
2023-01-18T17:35:58.803Z,35.63
2023-01-18T17:41:01.633Z,61.38
2023-01-18T17:46:06.863Z,58.45
2023-01-18T17:51:11.511Z,30.20
2023-01-18T17:56:15.852Z,61.17
2023-01-18T18:01:20.944Z,57.97
2023-01-18T18:06:31.252Z,82.50
2023-01-18T18:11:34.480Z,73.47
2023-01-18T18:16:43.451Z,70.10
2023-01-18T18:21:46.840Z,79.97
2023-01-18T18:26:49.639Z,52.85
2023-01-18T18:31:53.861Z,57.20
2023-01-18T18:36:56.638Z,54.30
2023-01-18T18:41:59.587Z,59.20
2023-01-18T18:47:05.648Z,60.30
2023-01-18T18:52:09.671Z,74.25
2023-01-18T18:57:12.904Z,85.60
2023-01-18T19:02:17.192Z,77.93
2023-01-18T19:07:20.103Z,73.78
2023-01-18T19:12:23.086Z,72.20
2023-01-18T19:17:30.848Z,70.35
2023-01-18T19:22:34.065Z,67.72
2023-01-18T19:27:36.944Z,71.30
2023-01-18T19:32:41.117Z,49.83
2023-01-18T19:37:44.046Z,46.45
2023-01-18T19:42:54.527Z,47.92
2023-01-18T19:48:00.592Z,61.15
2023-01-18T19:53:03.684Z,60.47
2023-01-18T19:58:06.704Z,72.05
2023-01-18T20:03:13.829Z,82.22
2023-01-18T20:08:16.632Z,85.90
2023-01-18T20:13:19.848Z,73.05
2023-01-18T20:18:23.901Z,71.22
2023-01-18T20:23:26.775Z,73.45
2023-01-18T20:28:29.746Z,66.68
2023-01-18T20:33:35.466Z,68.10
2023-01-18T20:38:38.729Z,82.25
2023-01-18T20:43:41.567Z,71.07
2023-01-18T20:48:45.648Z,61.72
2023-01-18T20:53:48.327Z,74.70
2023-01-18T20:58:51.266Z,55.30
2023-01-18T21:03:56.270Z,59.95
2023-01-18T21:09:01.020Z,59.28
2023-01-18T21:14:04.067Z,64.82
2023-01-18T21:19:09.974Z,82.88
2023-01-18T21:24:12.832Z,43.33
2023-01-18T21:29:15.777Z,55.38
2023-01-18T21:34:19.954Z,62.30
2023-01-18T21:39:25.747Z,83.75
2023-01-18T21:44:46.320Z,72.70
2023-01-18T21:50:17.470Z,67.18
2023-01-18T21:55:21.049Z,62.03
2023-01-18T22:00:24.123Z,70.80
2023-01-18T22:05:28.529Z,54.25
2023-01-18T22:10:31.332Z,52.95
2023-01-18T22:15:34.155Z,36.13
2023-01-18T22:20:38.497Z,29.98
2023-01-18T22:25:41.380Z,30.00
2023-01-18T22:30:44.133Z,32.28
2023-01-18T22:35:48.363Z,33.40
2023-01-18T22:40:51.227Z,24.30
2023-01-18T22:45:57.212Z,17.88
2023-01-18T22:51:02.303Z,22.70
2023-01-18T22:56:07.522Z,20.30
2023-01-18T23:01:18.760Z,22.38
2023-01-18T23:06:22.992Z,20.13
2023-01-18T23:11:27.905Z,27.70
2023-01-18T23:16:48.440Z,26.88
2023-01-18T23:21:53.368Z,26.70
2023-01-18T23:26:56.136Z,23.15
2023-01-18T23:31:59.759Z,22.75
2023-01-18T23:37:03.940Z,32.72
2023-01-18T23:42:24.493Z,49.58
2023-01-18T23:47:44.737Z,26.60
2023-01-18T23:53:06.693Z,21.40
2023-01-18T23:58:09.564Z,32.08
